Time;durP1;ratioP1;P1;durP2;ratioP2;P2;SDS_P1;SDS_P2;PMS_P1;PMS_P2;Temp;Humidity;BMP_temperature;BMP_pressure;BME280_temperature;BME280_humidity;BME280_pressure;Samples;Min_cycle;Max_cycle;Signal;HPM_P1;HPM_P2
2021/12/19 00:00:23;;;;;;;6.82;3.88;;;8.40;99.90;;;;;;5091064;28;20492;-77
2021/12/19 00:08:40;;;;;;;9.13;4.70;;;8.60;99.90;;;;;;5088010;28;20082;-73
2021/12/19 00:11:06;;;;;;;9.67;5.10;;;8.60;99.90;;;;;;5089510;28;20082;-73
2021/12/19 00:13:32;;;;;;;9.88;4.30;;;8.70;99.90;;;;;;5090772;28;20414;-75
2021/12/19 00:15:58;;;;;;;14.65;5.82;;;8.30;99.90;;;;;;5073027;28;20108;-74
2021/12/19 00:18:24;;;;;;;11.50;6.38;;;8.50;99.90;;;;;;5089265;28;20040;-75
2021/12/19 00:20:49;;;;;;;9.57;5.07;;;8.60;99.90;;;;;;5072791;28;20076;-76
2021/12/19 00:23:20;;;;;;;11.35;5.50;;;8.60;99.90;;;;;;5089985;28;20043;-75
2021/12/19 00:25:46;;;;;;;10.63;4.85;;;8.60;99.90;;;;;;5089743;28;20036;-74
2021/12/19 00:28:12;;;;;;;11.70;5.35;;;8.40;99.90;;;;;;5087568;28;20487;-75
2021/12/19 00:30:38;;;;;;;12.82;5.68;;;8.60;99.90;;;;;;5090149;28;20157;-74
2021/12/19 00:33:03;;;;;;;9.25;5.25;;;8.30;99.90;;;;;;5088219;28;20051;-75
2021/12/19 00:35:29;;;;;;;12.98;5.82;;;8.40;99.90;;;;;;5082541;28;20037;-75
2021/12/19 00:37:55;;;;;;;10.40;5.47;;;8.40;99.90;;;;;;5088798;28;20048;-76
2021/12/19 00:40:21;;;;;;;10.32;5.97;;;8.30;99.90;;;;;;5090578;28;20040;-74
2021/12/19 00:42:51;;;;;;;11.20;5.78;;;8.40;99.90;;;;;;5091229;28;20091;-75
2021/12/19 00:45:30;;;;;;;15.13;6.32;;;8.50;99.90;;;;;;5073083;28;20044;-74
2021/12/19 00:47:56;;;;;;;11.23;5.78;;;8.40;99.90;;;;;;5083965;28;22117;-75
2021/12/19 00:50:22;;;;;;;13.43;5.15;;;8.40;99.90;;;;;;5084570;28;20093;-74
2021/12/19 00:52:49;;;;;;;10.25;4.80;;;8.40;99.90;;;;;;5082643;28;20055;-74
2021/12/19 00:55:19;;;;;;;9.45;4.85;;;8.50;99.90;;;;;;5084798;28;20060;-74
2021/12/19 00:57:45;;;;;;;11.00;4.40;;;8.40;99.90;;;;;;5088450;28;20404;-74
2021/12/19 01:00:14;;;;;;;8.18;2.95;;;8.50;99.90;;;;;;5071231;28;20052;-74
2021/12/19 01:02:40;;;;;;;6.22;3.08;;;8.30;99.90;;;;;;5066820;28;20174;-74
2021/12/19 01:05:06;;;;;;;8.73;2.88;;;8.30;99.90;;;;;;5089147;28;20048;-75
2021/12/19 01:07:33;;;;;;;7.03;2.80;;;8.40;99.90;;;;;;5084045;28;20403;-72
2021/12/19 01:09:58;;;;;;;6.97;2.50;;;8.50;99.90;;;;;;5081894;28;20071;-73
2021/12/19 01:12:25;;;;;;;4.95;2.00;;;8.20;99.90;;;;;;5081917;28;20493;-73
2021/12/19 01:14:52;;;;;;;3.22;1.50;;;8.20;99.90;;;;;;5084949;28;20407;-74
2021/12/19 01:17:17;;;;;;;3.95;1.58;;;8.20;99.90;;;;;;5087746;28;20040;-75
2021/12/19 01:19:45;;;;;;;6.75;1.20;;;8.30;99.90;;;;;;5076798;28;20044;-73
2021/12/19 01:22:11;;;;;;;2.05;0.90;;;8.30;99.90;;;;;;5083642;28;20119;-74
2021/12/19 01:24:37;;;;;;;1.60;0.95;;;8.20;99.90;;;;;;5083575;28;20040;-74
2021/12/19 01:27:04;;;;;;;3.60;1.20;;;8.40;99.90;;;;;;5086378;28;20372;-73
2021/12/19 01:29:30;;;;;;;2.28;0.93;;;8.30;99.90;;;;;;5084501;28;20044;-74
2021/12/19 01:31:56;;;;;;;2.58;1.02;;;8.30;99.90;;;;;;5089734;28;20044;-73
2021/12/19 01:34:22;;;;;;;3.88;0.85;;;8.20;99.90;;;;;;5089450;28;20048;-74
2021/12/19 01:36:48;;;;;;;1.85;0.65;;;8.00;99.90;;;;;;5087697;28;20521;-73
2021/12/19 01:39:14;;;;;;;1.15;0.57;;;8.00;99.90;;;;;;5084553;28;20135;-74
2021/12/19 01:41:54;;;;;;;2.95;0.85;;;8.10;99.90;;;;;;5088403;28;20043;-73
2021/12/19 01:44:21;;;;;;;1.42;0.80;;;8.20;99.90;;;;;;5087968;28;20043;-73
2021/12/19 01:46:47;;;;;;;1.60;0.80;;;8.20;99.90;;;;;;5091213;28;20040;-74
2021/12/19 01:49:14;;;;;;;2.75;1.08;;;7.90;99.90;;;;;;5092670;28;20399;-72
2021/12/19 01:51:41;;;;;;;2.33;1.00;;;8.10;99.90;;;;;;5098042;28;20040;-73
2021/12/19 01:54:07;;;;;;;4.10;1.00;;;8.20;99.90;;;;;;5096254;28;20093;-74
2021/12/19 01:56:33;;;;;;;2.40;0.90;;;7.90;99.90;;;;;;5084876;28;20040;-75
2021/12/19 01:58:59;;;;;;;1.20;0.82;;;8.10;99.90;;;;;;5087432;28;20131;-73
2021/12/19 02:01:25;;;;;;;4.50;1.20;;;8.10;99.90;;;;;;5068353;28;20522;-75
2021/12/19 02:03:52;;;;;;;2.95;1.10;;;8.00;99.90;;;;;;5085505;28;20110;-76
2021/12/19 02:06:18;;;;;;;2.92;1.33;;;8.00;99.90;;;;;;5087369;28;20050;-74
2021/12/19 02:08:44;;;;;;;6.30;1.30;;;8.20;99.90;;;;;;5087844;28;20046;-75
2021/12/19 02:11:10;;;;;;;3.45;1.10;;;7.90;99.90;;;;;;5070888;28;20075;-74
2021/12/19 02:13:38;;;;;;;2.10;0.90;;;8.00;99.90;;;;;;5077994;28;20087;-76
2021/12/19 02:16:04;;;;;;;1.85;0.88;;;8.00;99.90;;;;;;5075350;28;20044;-76
2021/12/19 02:18:29;;;;;;;3.15;1.17;;;8.00;99.90;;;;;;5057280;28;20087;-74
2021/12/19 02:20:58;;;;;;;1.38;0.70;;;8.20;99.90;;;;;;5082143;28;20775;-74
2021/12/19 02:23:27;;;;;;;0.63;0.50;;;7.80;99.90;;;;;;5089354;28;20434;-75
2021/12/19 02:25:54;;;;;;;1.08;0.43;;;8.20;99.90;;;;;;5077674;28;20131;-75
2021/12/19 02:28:21;;;;;;;3.08;0.63;;;7.80;99.90;;;;;;5086911;28;20046;-76
2021/12/19 02:30:47;;;;;;;1.35;0.60;;;8.10;99.90;;;;;;5086669;28;20445;-74
2021/12/19 02:33:18;;;;;;;3.10;0.70;;;8.00;99.90;;;;;;5087521;28;20052;-73
2021/12/19 02:35:50;;;;;;;1.00;0.60;;;8.20;99.90;;;;;;5068998;28;20048;-73
2021/12/19 02:48:36;;;;;;;1.58;0.73;;;8.30;99.90;;;;;;5086965;28;20135;-74
2021/12/19 02:51:03;;;;;;;1.13;0.70;;;8.00;99.90;;;;;;5070695;28;20123;-76
2021/12/19 02:53:32;;;;;;;3.35;0.90;;;8.30;99.90;;;;;;5087600;28;20048;-74
2021/12/19 02:55:59;;;;;;;1.95;0.80;;;8.20;99.90;;;;;;5085244;28;20051;-74
2021/12/19 02:58:29;;;;;;;1.90;0.80;;;8.00;99.90;;;;;;5086699;28;20052;-73
2021/12/19 03:00:56;;;;;;;2.47;0.70;;;7.70;99.90;;;;;;5086328;28;20062;-74
2021/12/19 03:03:21;;;;;;;1.70;0.65;;;8.00;99.90;;;;;;5083957;28;20036;-74
2021/12/19 03:05:47;;;;;;;1.35;0.50;;;8.20;99.90;;;;;;5086004;28;20054;-73
2021/12/19 03:08:13;;;;;;;1.33;0.70;;;8.20;99.90;;;;;;5084551;28;20745;-74
2021/12/19 03:19:08;;;;;;;4.18;1.58;;;7.80;99.90;;;;;;5079731;28;20090;-74
2021/12/19 03:21:34;;;;;;;4.05;1.35;;;8.30;99.90;;;;;;5087478;28;20076;-75
2021/12/19 03:24:00;;;;;;;5.70;1.50;;;8.20;99.90;;;;;;5086971;28;20040;-75
2021/12/19 03:26:25;;;;;;;2.95;1.30;;;8.10;99.90;;;;;;5087444;28;20112;-74
2021/12/19 03:28:51;;;;;;;5.93;1.50;;;8.30;99.90;;;;;;5086704;28;20102;-74
2021/12/19 03:31:17;;;;;;;1.80;1.13;;;7.80;99.90;;;;;;5088234;28;20092;-75
2021/12/19 03:33:42;;;;;;;4.90;1.60;;;8.30;99.90;;;;;;5085612;28;20040;-75
2021/12/19 03:36:08;;;;;;;4.80;1.30;;;7.80;99.90;;;;;;5083655;28;20055;-75
2021/12/19 03:38:39;;;;;;;2.72;1.15;;;8.30;99.90;;;;;;5083653;28;20047;-74
2021/12/19 03:41:26;;;;;;;1.85;0.95;;;8.20;99.90;;;;;;5084422;28;20392;-74
2021/12/19 03:43:52;;;;;;;1.77;1.05;;;8.00;99.90;;;;;;5085979;28;20044;-74
2021/12/19 03:46:18;;;;;;;4.78;1.50;;;7.80;99.90;;;;;;5072125;28;20032;-74
2021/12/19 03:48:44;;;;;;;4.80;1.33;;;8.20;99.90;;;;;;5085964;28;20039;-74
2021/12/19 03:51:10;;;;;;;5.70;1.40;;;7.80;99.90;;;;;;5086973;28;20586;-76
2021/12/19 03:53:36;;;;;;;4.70;1.30;;;7.70;99.90;;;;;;5085182;28;20124;-75
2021/12/19 03:56:02;;;;;;;3.65;1.48;;;8.20;99.90;;;;;;5087813;28;20506;-75
2021/12/19 03:58:27;;;;;;;4.63;1.42;;;8.40;99.90;;;;;;5086481;28;20040;-74
2021/12/19 04:00:58;;;;;;;2.92;1.25;;;8.40;99.90;;;;;;5064113;28;20485;-75
2021/12/19 04:03:24;;;;;;;4.90;1.83;;;8.00;99.90;;;;;;5089784;28;20110;-75
2021/12/19 04:05:52;;;;;;;4.20;2.22;;;8.00;99.90;;;;;;5086767;28;20495;-75
2021/12/19 04:08:19;;;;;;;3.88;1.55;;;7.80;99.90;;;;;;5089918;28;20036;-75
2021/12/19 04:10:46;;;;;;;4.55;1.70;;;7.80;99.90;;;;;;5089908;28;20040;-75
2021/12/19 04:13:14;;;;;;;7.07;2.08;;;7.90;99.90;;;;;;5090522;28;20399;-73
2021/12/19 04:15:39;;;;;;;9.35;3.17;;;8.30;99.90;;;;;;5085036;28;20411;-74
2021/12/19 04:18:05;;;;;;;8.15;2.13;;;8.10;99.90;;;;;;5072432;28;20048;-74
2021/12/19 04:20:31;;;;;;;7.55;2.15;;;8.00;99.90;;;;;;5089477;28;20044;-74
2021/12/19 04:22:57;;;;;;;6.97;2.30;;;8.30;99.90;;;;;;5091530;28;20040;-75
2021/12/19 04:25:23;;;;;;;9.98;3.00;;;8.40;99.90;;;;;;5087813;28;20040;-73
2021/12/19 04:27:48;;;;;;;8.52;3.40;;;8.40;99.90;;;;;;5102387;28;20464;-74
2021/12/19 04:30:17;;;;;;;7.43;3.35;;;8.10;99.90;;;;;;5094578;28;20090;-76
2021/12/19 04:32:46;;;;;;;9.50;3.15;;;8.30;99.90;;;;;;5089863;28;20044;-75
2021/12/19 04:35:13;;;;;;;12.88;4.10;;;8.20;99.90;;;;;;5088289;28;20052;-74
2021/12/19 04:40:21;;;;;;;14.68;3.65;;;8.10;99.90;;;;;;5091336;28;20109;-75
2021/12/19 04:53:47;;;;;;;12.40;4.72;;;8.10;99.90;;;;;;5090440;28;20059;-74
2021/12/19 04:59:25;;;;;;;12.35;4.95;;;8.40;99.90;;;;;;5088293;28;20052;-74
2021/12/19 05:15:15;;;;;;;18.92;6.95;;;8.30;99.90;;;;;;5088942;28;20063;-73
2021/12/19 05:17:41;;;;;;;18.02;5.82;;;8.00;99.90;;;;;;5092164;28;20044;-73
2021/12/19 05:20:14;;;;;;;22.05;7.45;;;8.10;99.90;;;;;;5074171;28;20040;-74
2021/12/19 05:22:47;;;;;;;17.27;6.90;;;8.00;99.90;;;;;;5088246;28;20047;-73
2021/12/19 05:25:18;;;;;;;18.95;6.72;;;8.10;99.90;;;;;;5088761;28;20040;-73
2021/12/19 05:27:53;;;;;;;16.20;6.07;;;8.30;99.90;;;;;;5088452;28;20147;-73
2021/12/19 05:30:20;;;;;;;14.95;6.03;;;8.10;99.90;;;;;;5089275;28;20040;-73
2021/12/19 05:32:50;;;;;;;19.13;6.95;;;8.40;99.90;;;;;;5089882;28;20042;-73
2021/12/19 05:35:25;;;;;;;22.67;7.47;;;8.10;99.90;;;;;;5090423;28;20548;-73
2021/12/19 05:46:05;;;;;;;22.05;6.68;;;8.20;99.90;;;;;;5099962;28;20119;-74
2021/12/19 05:48:31;;;;;;;21.35;5.97;;;8.30;99.90;;;;;;5085637;28;20058;-73
2021/12/19 05:50:56;;;;;;;13.55;5.22;;;8.00;99.90;;;;;;5082997;28;20044;-74
2021/12/19 05:53:22;;;;;;;13.50;6.07;;;8.00;99.90;;;;;;5086056;28;20079;-75
2021/12/19 05:55:48;;;;;;;15.52;6.55;;;8.20;99.90;;;;;;5085091;28;20501;-74
2021/12/19 05:58:13;;;;;;;14.05;6.38;;;7.90;99.90;;;;;;5083356;28;21516;-74
2021/12/19 06:00:39;;;;;;;13.65;5.88;;;7.90;99.90;;;;;;5087762;28;20055;-75
2021/12/19 06:03:06;;;;;;;17.48;6.15;;;8.20;99.90;;;;;;5086862;28;20038;-73
2021/12/19 06:05:32;;;;;;;20.92;6.15;;;8.10;99.90;;;;;;5087056;28;20353;-74
2021/12/19 06:07:58;;;;;;;15.35;5.97;;;8.20;99.90;;;;;;5089028;28;20586;-72
2021/12/19 06:10:25;;;;;;;20.20;7.07;;;8.20;99.90;;;;;;5057861;28;20044;-73
2021/12/19 06:12:51;;;;;;;18.33;5.68;;;8.20;99.90;;;;;;5067290;28;20048;-72
2021/12/19 06:15:17;;;;;;;16.25;5.45;;;7.90;99.90;;;;;;5086217;28;20088;-73
2021/12/19 06:17:45;;;;;;;17.15;6.22;;;8.30;99.90;;;;;;5088434;28;20039;-73
2021/12/19 06:20:11;;;;;;;11.75;4.30;;;7.80;99.90;;;;;;5082030;28;20055;-73
2021/12/19 06:22:38;;;;;;;13.23;4.95;;;8.00;99.90;;;;;;5087872;28;20441;-73
2021/12/19 06:25:05;;;;;;;17.45;5.05;;;8.20;99.90;;;;;;5083212;28;20051;-73
2021/12/19 06:27:31;;;;;;;15.27;5.07;;;8.10;99.90;;;;;;5068796;28;20036;-74
2021/12/19 06:29:58;;;;;;;15.60;4.53;;;8.20;99.90;;;;;;5085257;28;20043;-75
2021/12/19 06:32:24;;;;;;;14.23;4.43;;;7.80;99.90;;;;;;5074043;28;20492;-73
2021/12/19 06:34:49;;;;;;;9.23;3.40;;;8.00;99.90;;;;;;5083479;28;20032;-73
2021/12/19 06:37:15;;;;;;;10.50;3.30;;;7.80;99.90;;;;;;5063782;28;20093;-74
2021/12/19 06:39:41;;;;;;;11.55;3.60;;;7.80;99.90;;;;;;5080707;28;20073;-75
2021/12/19 06:42:08;;;;;;;11.48;3.50;;;8.10;99.90;;;;;;5083737;28;20124;-75
2021/12/19 06:44:34;;;;;;;11.18;3.20;;;7.90;99.90;;;;;;5084076;28;20039;-76
2021/12/19 06:47:01;;;;;;;10.98;3.30;;;7.80;99.90;;;;;;5055162;28;20040;-75
2021/12/19 06:49:27;;;;;;;12.27;3.13;;;8.00;99.90;;;;;;5083984;28;20046;-76
2021/12/19 06:51:53;;;;;;;11.88;3.50;;;7.90;99.90;;;;;;5084345;28;20039;-73
2021/12/19 06:54:19;;;;;;;12.48;2.70;;;8.00;99.90;;;;;;5087931;28;20032;-74
2021/12/19 06:56:44;;;;;;;8.73;2.70;;;7.90;99.90;;;;;;5089100;28;20066;-73
2021/12/19 06:59:10;;;;;;;9.88;2.47;;;7.90;99.90;;;;;;5076807;28;20448;-72
2021/12/19 07:01:37;;;;;;;11.75;2.78;;;8.00;99.90;;;;;;5075387;28;20040;-75
2021/12/19 07:04:03;;;;;;;8.23;2.75;;;7.80;99.90;;;;;;5065721;28;20036;-72
2021/12/19 07:06:28;;;;;;;14.63;3.10;;;7.70;99.90;;;;;;5072024;28;20039;-73
2021/12/19 07:08:54;;;;;;;10.30;3.80;;;7.90;99.90;;;;;;5077056;28;20040;-74
2021/12/19 07:11:20;;;;;;;9.23;2.55;;;7.80;99.90;;;;;;5080307;28;21318;-74
2021/12/19 07:13:46;;;;;;;11.07;3.47;;;7.90;99.90;;;;;;5066381;28;20036;-73
2021/12/19 07:16:12;;;;;;;13.48;2.97;;;7.90;99.90;;;;;;5083019;28;20388;-76
2021/12/19 07:18:37;;;;;;;11.57;2.95;;;8.00;99.90;;;;;;5081531;28;20801;-72
2021/12/19 07:21:07;;;;;;;11.20;3.78;;;7.90;99.90;;;;;;5082866;28;20036;-74
2021/12/19 07:23:33;;;;;;;10.82;2.72;;;7.80;99.90;;;;;;5065124;28;20474;-76
2021/12/19 07:25:59;;;;;;;9.10;2.85;;;8.00;99.90;;;;;;5083099;28;20074;-73
2021/12/19 07:28:25;;;;;;;16.35;3.90;;;8.10;99.90;;;;;;5084876;28;20044;-73
2021/12/19 07:30:51;;;;;;;12.77;3.25;;;7.90;99.90;;;;;;5077978;28;20051;-74
2021/12/19 07:33:18;;;;;;;10.65;3.38;;;8.10;99.90;;;;;;5062976;28;20663;-76
2021/12/19 07:35:47;;;;;;;8.10;2.72;;;8.00;99.90;;;;;;5078622;28;20076;-75
2021/12/19 07:38:21;;;;;;;17.50;2.85;;;7.90;99.90;;;;;;5086965;28;20051;-76
2021/12/19 07:41:02;;;;;;;8.38;2.75;;;8.10;99.90;;;;;;5089481;28;20032;-72
2021/12/19 07:44:07;;;;;;;13.75;3.10;;;8.20;99.90;;;;;;5067903;28;20506;-73
2021/12/19 07:46:43;;;;;;;7.97;2.60;;;8.10;99.90;;;;;;5091792;28;20149;-74
2021/12/19 07:49:08;;;;;;;12.90;3.15;;;8.00;99.90;;;;;;5089343;28;20384;-74
2021/12/19 07:51:34;;;;;;;12.43;3.60;;;8.00;99.90;;;;;;5090145;28;20048;-75
2021/12/19 07:54:01;;;;;;;9.80;2.80;;;8.20;99.90;;;;;;5073599;28;20042;-74
2021/12/19 07:56:27;;;;;;;9.95;3.15;;;8.00;99.90;;;;;;5091463;28;20075;-76
2021/12/19 07:58:57;;;;;;;14.45;4.05;;;7.90;99.90;;;;;;5075429;28;20068;-75
2021/12/19 08:01:24;;;;;;;11.73;3.25;;;7.90;99.90;;;;;;5077076;28;20044;-75
2021/12/19 08:03:50;;;;;;;9.38;2.35;;;8.20;99.90;;;;;;5060692;28;20097;-75
2021/12/19 08:06:16;;;;;;;13.55;2.92;;;7.90;99.90;;;;;;5073408;28;20028;-74
2021/12/19 08:08:47;;;;;;;11.38;3.20;;;7.90;99.90;;;;;;5092819;28;20127;-75
2021/12/19 08:13:57;;;;;;;8.85;2.97;;;7.90;99.90;;;;;;5091264;28;20534;-73
2021/12/19 08:16:22;;;;;;;12.50;3.65;;;8.10;99.90;;;;;;5091173;28;20051;-73
2021/12/19 08:18:49;;;;;;;17.77;3.72;;;7.90;99.90;;;;;;5089015;28;20383;-73
2021/12/19 08:21:15;;;;;;;17.10;4.38;;;8.10;99.90;;;;;;5083683;28;20055;-73
2021/12/19 08:23:40;;;;;;;11.95;2.72;;;7.90;99.90;;;;;;5083297;28;20036;-73
2021/12/19 08:26:06;;;;;;;14.23;3.42;;;8.00;99.90;;;;;;5082980;28;20040;-72
2021/12/19 08:28:32;;;;;;;12.05;3.05;;;8.10;99.90;;;;;;5084986;28;20048;-72
2021/12/19 08:30:57;;;;;;;12.50;3.03;;;7.90;99.90;;;;;;5081204;28;20166;-74
2021/12/19 08:33:23;;;;;;;12.95;2.72;;;8.30;99.90;;;;;;5085370;28;20051;-74
2021/12/19 08:35:49;;;;;;;8.50;2.60;;;8.10;99.90;;;;;;5085426;28;20039;-74
2021/12/19 08:38:14;;;;;;;10.50;3.20;;;8.70;99.90;;;;;;5082177;28;20032;-73
2021/12/19 08:40:41;;;;;;;8.05;2.95;;;8.10;99.90;;;;;;5071219;28;20105;-74
2021/12/19 08:43:06;;;;;;;11.30;2.55;;;8.00;99.90;;;;;;5084035;28;20181;-74
2021/12/19 08:45:33;;;;;;;11.15;2.42;;;8.30;99.90;;;;;;5084987;28;20107;-74
2021/12/19 08:47:58;;;;;;;9.93;2.10;;;8.30;99.90;;;;;;5079684;28;20035;-72
2021/12/19 08:50:24;;;;;;;9.25;2.60;;;8.40;99.90;;;;;;5077386;28;20412;-73
2021/12/19 08:52:52;;;;;;;9.77;2.45;;;8.40;99.90;;;;;;5083473;28;20663;-77
2021/12/19 08:55:18;;;;;;;9.13;2.25;;;8.10;99.90;;;;;;5083811;28;20117;-73
2021/12/19 08:57:44;;;;;;;7.32;2.35;;;8.30;99.90;;;;;;5083978;28;20048;-73
2021/12/19 09:00:11;;;;;;;9.68;2.30;;;8.30;99.90;;;;;;5070897;28;20052;-76
2021/12/19 09:02:38;;;;;;;12.80;2.60;;;8.10;99.90;;;;;;5081167;28;20048;-74
2021/12/19 09:05:05;;;;;;;10.07;2.20;;;8.10;99.90;;;;;;5075837;28;20036;-75
2021/12/19 09:07:30;;;;;;;11.40;2.40;;;8.40;99.90;;;;;;5081401;28;20044;-73
2021/12/19 09:09:56;;;;;;;21.63;3.70;;;8.40;99.90;;;;;;5078673;28;20047;-75
2021/12/19 09:12:22;;;;;;;10.23;2.38;;;8.10;99.90;;;;;;5078915;28;20048;-73
2021/12/19 09:14:47;;;;;;;11.43;2.42;;;8.10;99.90;;;;;;5078424;28;20059;-73
2021/12/19 09:17:13;;;;;;;11.57;2.70;;;8.20;99.90;;;;;;5081587;28;20051;-74
2021/12/19 09:19:39;;;;;;;14.10;2.78;;;8.50;99.90;;;;;;5099905;28;20035;-74
2021/12/19 09:22:05;;;;;;;9.93;2.50;;;8.20;99.90;;;;;;5081343;28;20119;-73
2021/12/19 09:24:31;;;;;;;11.02;2.40;;;8.20;99.90;;;;;;5086631;28;20044;-72
2021/12/19 09:26:57;;;;;;;12.85;3.42;;;8.60;99.90;;;;;;5084658;28;20036;-74
2021/12/19 09:29:28;;;;;;;8.55;3.00;;;8.50;99.90;;;;;;5082542;28;20096;-74
2021/12/19 09:31:54;;;;;;;11.30;2.97;;;8.50;99.90;;;;;;5042314;28;20040;-74
2021/12/19 09:34:20;;;;;;;9.35;2.65;;;8.50;99.90;;;;;;5083150;28;20380;-74
2021/12/19 09:36:45;;;;;;;14.38;3.42;;;8.40;99.90;;;;;;5083863;28;20054;-74
2021/12/19 09:39:11;;;;;;;10.80;2.60;;;8.30;99.90;;;;;;5082170;28;20494;-74
2021/12/19 09:41:43;;;;;;;9.50;2.80;;;8.40;99.90;;;;;;5096538;28;20059;-73
2021/12/19 09:44:11;;;;;;;8.50;2.92;;;8.50;99.90;;;;;;5074416;28;20118;-74
2021/12/19 09:46:41;;;;;;;15.77;2.85;;;8.40;99.90;;;;;;5083110;28;20055;-74
2021/12/19 09:49:10;;;;;;;9.48;2.60;;;8.50;99.90;;;;;;5082454;28;20047;-74
2021/12/19 09:51:37;;;;;;;7.88;2.28;;;8.40;99.90;;;;;;5080460;28;20048;-74
2021/12/19 09:54:06;;;;;;;7.40;2.33;;;8.30;99.90;;;;;;5083394;28;20040;-73
2021/12/19 09:56:33;;;;;;;8.70;2.55;;;8.30;99.90;;;;;;5085392;28;20044;-73
2021/12/19 09:59:02;;;;;;;12.10;2.28;;;8.30;99.90;;;;;;5082626;28;20128;-74
2021/12/19 10:01:28;;;;;;;10.30;2.45;;;8.20;99.90;;;;;;5083665;28;20059;-76
2021/12/19 10:03:53;;;;;;;10.32;3.10;;;8.30;99.90;;;;;;5098048;28;20036;-74
2021/12/19 10:06:23;;;;;;;6.75;1.98;;;8.20;99.90;;;;;;5085415;28;20032;-73
2021/12/19 10:09:11;;;;;;;8.68;2.10;;;8.20;99.90;;;;;;5082131;28;20048;-76
2021/12/19 10:11:52;;;;;;;9.48;2.30;;;8.30;99.90;;;;;;5086440;28;20097;-74
2021/12/19 10:14:35;;;;;;;13.38;2.55;;;8.20;99.90;;;;;;5081850;28;20079;-75
2021/12/19 10:17:06;;;;;;;11.40;3.00;;;8.20;99.90;;;;;;5081431;28;20051;-75
2021/12/19 10:19:52;;;;;;;5.50;1.65;;;8.30;99.90;;;;;;5100147;28;20079;-70
2021/12/19 10:22:43;;;;;;;12.82;3.15;;;8.30;99.90;;;;;;5085289;28;20572;-78
2021/12/19 10:25:27;;;;;;;8.13;2.05;;;8.20;99.90;;;;;;5084291;28;20103;-76
2021/12/19 10:28:03;;;;;;;12.23;2.80;;;8.30;99.90;;;;;;5083633;28;20032;-76
2021/12/19 10:30:46;;;;;;;11.40;2.55;;;8.20;99.90;;;;;;5083476;28;20487;-73
2021/12/19 10:33:22;;;;;;;10.70;2.65;;;8.10;99.90;;;;;;5082000;28;20090;-76
2021/12/19 10:35:56;;;;;;;11.82;2.25;;;8.20;99.90;;;;;;5077985;28;20082;-77
2021/12/19 10:38:36;;;;;;;15.40;2.47;;;8.20;99.90;;;;;;5084629;28;20036;-78
2021/12/19 10:41:20;;;;;;;11.48;2.45;;;8.20;99.90;;;;;;5088654;28;20135;-78
2021/12/19 10:43:58;;;;;;;8.20;2.42;;;8.10;99.90;;;;;;5085249;28;20048;-76
2021/12/19 10:46:39;;;;;;;15.15;3.10;;;8.20;99.90;;;;;;5085628;28;20032;-73
2021/12/19 10:49:20;;;;;;;12.70;2.92;;;8.20;99.90;;;;;;5075766;28;20120;-77
2021/12/19 10:51:48;;;;;;;11.90;2.45;;;8.10;99.90;;;;;;5087577;28;20048;-74
2021/12/19 10:54:14;;;;;;;6.88;1.95;;;8.20;99.90;;;;;;5089003;28;20051;-74
2021/12/19 10:56:41;;;;;;;10.73;2.50;;;8.20;99.90;;;;;;5090642;28;20074;-73
2021/12/19 10:59:15;;;;;;;10.02;2.47;;;8.10;99.90;;;;;;5072130;28;20414;-75
2021/12/19 11:01:51;;;;;;;10.13;2.40;;;8.10;99.90;;;;;;5090280;28;20109;-78
2021/12/19 11:04:23;;;;;;;13.75;2.50;;;8.10;99.90;;;;;;5083175;28;20365;-74
2021/12/19 11:06:58;;;;;;;13.93;2.80;;;8.20;99.90;;;;;;5084570;28;20042;-72
2021/12/19 11:09:24;;;;;;;16.90;3.30;;;8.10;99.90;;;;;;5089105;28;20058;-76
2021/12/19 11:12:03;;;;;;;12.27;2.53;;;8.20;99.90;;;;;;5087255;28;20036;-76
2021/12/19 11:14:39;;;;;;;14.68;2.70;;;8.20;99.90;;;;;;5088323;28;20146;-76
2021/12/19 11:17:20;;;;;;;13.68;2.92;;;8.20;99.90;;;;;;5086999;28;20371;-75
2021/12/19 11:19:47;;;;;;;13.63;2.40;;;8.20;99.90;;;;;;5089283;28;20426;-75
2021/12/19 11:22:23;;;;;;;9.05;2.47;;;8.20;99.90;;;;;;5088202;28;20115;-75
2021/12/19 11:24:54;;;;;;;6.28;1.90;;;8.20;99.90;;;;;;5088556;28;20180;-74
2021/12/19 11:27:20;;;;;;;8.55;2.25;;;8.20;99.90;;;;;;5070616;28;20040;-74
2021/12/19 11:29:49;;;;;;;11.93;2.70;;;8.30;99.90;;;;;;5087502;28;20474;-76
2021/12/19 11:32:19;;;;;;;9.93;2.15;;;8.20;99.90;;;;;;5089266;28;20044;-76
2021/12/19 11:35:12;;;;;;;11.48;3.70;;;8.20;99.90;;;;;;5064399;28;20375;-78
2021/12/19 11:37:45;;;;;;;10.13;1.83;;;8.20;99.90;;;;;;5070214;28;20491;-72
2021/12/19 11:40:16;;;;;;;15.10;3.00;;;8.20;99.90;;;;;;5076257;28;20123;-73
2021/12/19 11:42:42;;;;;;;10.63;2.45;;;8.30;99.90;;;;;;5086427;28;20041;-75
2021/12/19 11:45:27;;;;;;;15.60;3.03;;;8.30;99.90;;;;;;5087846;28;20055;-74
2021/12/19 11:47:59;;;;;;;10.15;2.83;;;8.30;99.90;;;;;;5091886;28;20040;-74
2021/12/19 11:50:28;;;;;;;12.48;2.60;;;8.30;99.90;;;;;;5073318;28;20067;-75
2021/12/19 11:52:57;;;;;;;11.63;2.53;;;8.30;99.90;;;;;;5086468;28;20112;-72
2021/12/19 11:55:30;;;;;;;12.82;3.25;;;8.40;99.90;;;;;;5088727;28;20064;-75
2021/12/19 11:58:08;;;;;;;11.23;2.50;;;8.40;99.90;;;;;;5086662;28;20036;-76
2021/12/19 12:00:52;;;;;;;19.42;3.53;;;8.40;99.90;;;;;;5088511;28;20052;-77
2021/12/19 12:03:21;;;;;;;11.85;2.97;;;8.40;99.90;;;;;;5068085;28;20036;-75
2021/12/19 12:05:59;;;;;;;16.58;2.53;;;8.40;99.90;;;;;;5088051;28;20044;-73
2021/12/19 12:08:26;;;;;;;18.50;3.42;;;8.40;99.90;;;;;;5088591;28;20301;-72
2021/12/19 12:10:57;;;;;;;12.48;3.05;;;8.50;99.90;;;;;;5088028;28;20036;-75
2021/12/19 12:13:41;;;;;;;16.65;3.05;;;8.40;99.90;;;;;;5103504;28;20122;-75
2021/12/19 12:16:14;;;;;;;11.95;2.50;;;8.40;99.90;;;;;;5089956;28;20071;-75
2021/12/19 12:18:42;;;;;;;17.38;2.95;;;8.50;99.90;;;;;;5091180;28;20403;-74
2021/12/19 12:21:22;;;;;;;12.75;2.92;;;8.50;99.90;;;;;;5088106;28;20087;-73
2021/12/19 12:23:58;;;;;;;16.70;2.95;;;8.50;99.90;;;;;;5085649;28;20050;-74
2021/12/19 12:26:34;;;;;;;14.35;3.13;;;8.50;99.90;;;;;;5094669;28;20101;-76
2021/12/19 12:29:00;;;;;;;10.18;2.60;;;8.40;99.90;;;;;;5095897;28;20051;-73
2021/12/19 12:31:27;;;;;;;12.65;3.08;;;8.40;99.90;;;;;;5093654;28;20050;-76
2021/12/19 12:33:54;;;;;;;11.65;2.55;;;8.40;99.90;;;;;;5091831;28;20097;-73
2021/12/19 12:36:21;;;;;;;14.85;2.70;;;8.50;99.90;;;;;;5075029;28;20044;-75
2021/12/19 12:38:51;;;;;;;15.02;2.75;;;8.40;99.90;;;;;;5088093;28;20123;-75
2021/12/19 12:42:10;;;;;;;15.75;2.50;;;8.40;99.90;;;;;;5089382;28;20487;-74
2021/12/19 12:44:17;;;;;;;12.88;2.17;;;8.40;99.90;;;;;;5078124;28;20123;-77
2021/12/19 12:46:43;;;;;;;16.15;3.30;;;8.40;99.90;;;;;;5088912;28;20043;-74
2021/12/19 12:49:14;;;;;;;21.48;3.40;;;8.40;99.90;;;;;;5090489;28;20075;-73
2021/12/19 12:51:50;;;;;;;11.40;2.17;;;8.30;99.90;;;;;;5092967;28;20427;-72
2021/12/19 12:54:32;;;;;;;14.30;2.70;;;8.30;99.90;;;;;;5071616;28;20102;-71
2021/12/19 12:57:00;;;;;;;14.45;2.00;;;8.40;99.90;;;;;;5090422;28;20036;-76
2021/12/19 12:59:29;;;;;;;9.38;2.00;;;8.30;99.90;;;;;;5088354;28;20075;-74
2021/12/19 13:02:10;;;;;;;11.75;2.75;;;8.30;99.90;;;;;;5090327;28;20044;-76
2021/12/19 13:04:38;;;;;;;14.05;2.05;;;8.30;99.90;;;;;;5090461;28;20051;-77
2021/12/19 13:07:11;;;;;;;11.13;2.33;;;8.40;99.90;;;;;;5089305;28;20044;-74
2021/12/19 13:09:43;;;;;;;10.68;1.90;;;8.40;99.90;;;;;;5071387;28;20047;-74
2021/12/19 13:12:20;;;;;;;9.25;1.65;;;8.30;99.90;;;;;;5090946;28;20784;-74
2021/12/19 13:15:07;;;;;;;9.98;2.25;;;8.30;99.90;;;;;;5082812;28;20059;-76
2021/12/19 13:17:38;;;;;;;12.27;2.35;;;8.30;99.90;;;;;;5071759;28;20063;-75
2021/12/19 13:20:19;;;;;;;12.85;2.40;;;8.40;99.90;;;;;;5104061;28;20040;-77
2021/12/19 13:22:54;;;;;;;8.70;2.03;;;8.30;99.90;;;;;;5070651;28;20040;-73
2021/12/19 13:25:22;;;;;;;;;;;8.30;99.90;;;;;;5081054;28;20047;-74
2021/12/19 13:27:49;;;;;;;9.75;2.25;;;8.40;99.90;;;;;;5090516;28;19922;-73
2021/12/19 13:30:24;;;;;;;13.77;2.65;;;8.40;99.90;;;;;;5090325;28;20040;-78
2021/12/19 13:32:57;;;;;;;15.10;2.33;;;8.40;99.90;;;;;;5089163;28;20043;-74
2021/12/19 13:35:29;;;;;;;17.30;2.72;;;8.40;99.90;;;;;;5089660;28;20055;-76
2021/12/19 13:38:03;;;;;;;20.75;3.22;;;8.40;99.90;;;;;;5087867;28;20071;-74
2021/12/19 13:40:33;;;;;;;13.25;2.55;;;8.30;99.90;;;;;;5074622;28;20040;-76
2021/12/19 13:43:03;;;;;;;14.27;2.70;;;8.40;99.90;;;;;;5079742;28;20032;-74
2021/12/19 13:45:37;;;;;;;9.27;2.13;;;8.40;99.90;;;;;;5090356;28;20391;-75
2021/12/19 13:48:12;;;;;;;6.75;2.33;;;8.40;99.90;;;;;;5088922;28;20040;-72
2021/12/19 13:50:43;;;;;;;;;;;8.40;99.90;;;;;;5091862;28;20044;-76
2021/12/19 13:53:10;;;;;;;9.60;2.20;;;8.40;99.90;;;;;;5067976;28;20288;-74
2021/12/19 13:55:51;;;;;;;15.00;2.08;;;8.40;99.90;;;;;;5090700;28;20487;-75
2021/12/19 13:58:18;;;;;;;11.85;2.58;;;8.40;99.90;;;;;;5089636;28;20032;-74
2021/12/19 14:00:47;;;;;;;9.00;1.60;;;8.40;99.90;;;;;;5089330;28;20141;-76
2021/12/19 14:03:13;;;;;;;18.75;2.50;;;8.50;99.90;;;;;;5089098;28;20075;-71
2021/12/19 14:05:54;;;;;;;8.25;1.83;;;8.40;99.90;;;;;;5090747;28;20475;-76
2021/12/19 14:08:29;;;;;;;7.15;1.98;;;8.40;99.90;;;;;;5090434;28;20047;-74